createdAt,value
2023-02-17T00:01:16.238Z,293.33
2023-02-17T00:03:44.129Z,257.98
2023-02-17T00:06:12.095Z,244.57
2023-02-17T00:08:40.581Z,251.68
2023-02-17T00:11:08.676Z,255.38
2023-02-17T00:13:36.709Z,183.30
2023-02-17T00:16:12.591Z,182.38
2023-02-17T00:18:40.574Z,203.55
2023-02-17T00:21:18.902Z,212.75
2023-02-17T00:23:47.395Z,166.40
2023-02-17T00:26:16.009Z,219.35
2023-02-17T00:28:44.340Z,160.10
2023-02-17T00:31:15.364Z,210.20
2023-02-17T00:33:43.196Z,219.40
2023-02-17T00:36:15.772Z,226.68
2023-02-17T00:38:44.057Z,306.63
2023-02-17T00:41:12.200Z,302.38
2023-02-17T00:43:40.649Z,256.83
2023-02-17T00:46:08.645Z,250.73
2023-02-17T00:48:37.166Z,284.10
2023-02-17T00:51:05.716Z,269.90
2023-02-17T00:53:35.582Z,291.48
2023-02-17T00:56:03.847Z,270.88
2023-02-17T00:58:32.126Z,292.38
2023-02-17T01:00:59.968Z,352.20
2023-02-17T01:03:28.478Z,348.77
2023-02-17T01:05:56.776Z,400.90
2023-02-17T01:08:26.059Z,365.42
2023-02-17T01:10:54.209Z,341.45
2023-02-17T01:13:22.282Z,391.50
2023-02-17T01:15:52.241Z,356.52
2023-02-17T01:18:23.179Z,315.57
2023-02-17T01:20:51.965Z,383.63
2023-02-17T01:23:20.069Z,276.02
2023-02-17T01:25:48.185Z,340.33
2023-02-17T01:28:18.434Z,388.88
2023-02-17T01:30:47.847Z,305.25
2023-02-17T01:33:15.994Z,315.80
2023-02-17T01:35:44.308Z,303.70
2023-02-17T01:38:13.369Z,178.82
2023-02-17T01:40:48.597Z,321.08
2023-02-17T01:43:18.019Z,352.75
2023-02-17T01:45:49.651Z,273.50
2023-02-17T01:48:20.478Z,368.80
2023-02-17T01:50:55.029Z,268.23
2023-02-17T01:53:26.660Z,306.92
2023-02-17T01:55:54.752Z,392.88
2023-02-17T01:58:23.628Z,372.38
2023-02-17T02:00:51.457Z,312.70
2023-02-17T02:03:19.876Z,139.80
2023-02-17T02:05:48.185Z,188.32
2023-02-17T02:08:16.342Z,355.10
2023-02-17T02:10:44.527Z,446.20
2023-02-17T02:13:12.672Z,192.75
2023-02-17T02:16:08.599Z,356.30
2023-02-17T02:18:50.325Z,354.88
2023-02-17T02:21:33.486Z,192.90
2023-02-17T02:24:23.129Z,231.32
2023-02-17T02:27:26.757Z,192.05
2023-02-17T02:30:30.131Z,195.73
2023-02-17T02:33:00.192Z,194.63
2023-02-17T02:35:27.873Z,225.88
2023-02-17T02:38:12.618Z,194.60
2023-02-17T02:40:43.795Z,247.60
2023-02-17T02:43:14.874Z,218.73
2023-02-17T02:45:43.162Z,228.32
2023-02-17T02:48:11.402Z,145.60
2023-02-17T02:50:49.219Z,175.38
2023-02-17T02:53:26.282Z,181.77
2023-02-17T02:56:15.574Z,182.13
2023-02-17T02:59:04.264Z,202.93
2023-02-17T03:01:42.320Z,63.90
2023-02-17T03:04:36.390Z,169.73
2023-02-17T03:07:21.565Z,172.32
2023-02-17T03:09:55.391Z,71.40
2023-02-17T03:12:23.506Z,113.40
2023-02-17T03:14:53.908Z,201.48
2023-02-17T03:17:23.474Z,193.57
2023-02-17T03:19:51.594Z,197.05
2023-02-17T03:22:24.736Z,179.40
2023-02-17T03:24:52.690Z,172.52
2023-02-17T03:27:20.662Z,198.20
2023-02-17T03:29:49.320Z,179.40
2023-02-17T03:32:19.256Z,225.30
2023-02-17T03:34:47.380Z,216.90
2023-02-17T03:37:15.179Z,200.38
2023-02-17T03:39:43.261Z,209.40
2023-02-17T03:42:11.742Z,220.88
2023-02-17T03:44:39.547Z,189.65
2023-02-17T03:47:07.731Z,177.55
2023-02-17T03:49:35.472Z,207.18
2023-02-17T03:52:03.352Z,212.20
2023-02-17T03:54:31.453Z,210.45
2023-02-17T03:57:01.519Z,333.70
2023-02-17T03:59:29.579Z,339.25
2023-02-17T04:01:57.957Z,407.73
2023-02-17T04:04:25.775Z,395.63
2023-02-17T04:06:53.862Z,365.65
2023-02-17T04:09:21.919Z,347.75
2023-02-17T04:11:49.670Z,392.30
2023-02-17T04:14:17.930Z,340.38
2023-02-17T04:16:45.646Z,326.55
2023-02-17T04:19:13.820Z,357.83
2023-02-17T04:21:41.682Z,373.25
2023-02-17T04:24:09.536Z,307.23
2023-02-17T04:26:37.166Z,393.13
2023-02-17T04:29:05.849Z,387.25
2023-02-17T04:31:34.099Z,391.50
2023-02-17T04:34:01.870Z,364.17
2023-02-17T04:36:30.044Z,399.15
2023-02-17T04:38:57.779Z,354.15
2023-02-17T04:41:25.686Z,391.15
2023-02-17T04:43:53.538Z,370.50
2023-02-17T04:46:21.645Z,367.45
2023-02-17T04:48:49.511Z,311.15
2023-02-17T04:51:17.333Z,359.92
2023-02-17T04:53:45.433Z,342.05
2023-02-17T04:56:13.253Z,281.60
2023-02-17T04:58:41.367Z,172.50
2023-02-17T05:01:09.522Z,180.50
2023-02-17T05:03:37.434Z,197.50
2023-02-17T05:06:06.019Z,179.70
2023-02-17T05:08:34.264Z,143.30
2023-02-17T05:11:02.349Z,130.82
2023-02-17T05:13:30.346Z,172.05
2023-02-17T05:15:58.160Z,165.75
2023-02-17T05:18:26.139Z,174.93
2023-02-17T05:20:54.429Z,183.63
2023-02-17T05:23:22.826Z,178.75
2023-02-17T05:25:50.734Z,174.77
2023-02-17T05:28:18.773Z,171.68
2023-02-17T05:30:48.853Z,174.10
2023-02-17T05:33:16.947Z,189.63
2023-02-17T05:35:44.787Z,176.10
2023-02-17T05:38:12.826Z,166.27
2023-02-17T05:40:41.082Z,184.27
2023-02-17T05:43:09.260Z,176.10
2023-02-17T05:45:37.072Z,162.30
2023-02-17T05:48:05.041Z,160.07
2023-02-17T05:50:32.977Z,155.57
2023-02-17T05:53:03.645Z,158.57
2023-02-17T05:55:32.147Z,171.63
2023-02-17T05:57:59.913Z,172.52
2023-02-17T06:00:29.293Z,179.98
2023-02-17T06:02:57.103Z,157.50
2023-02-17T06:05:25.142Z,156.40
2023-02-17T06:07:53.358Z,262.55
2023-02-17T06:10:21.249Z,299.67
2023-02-17T06:12:49.253Z,288.63
2023-02-17T06:15:17.084Z,303.27
2023-02-17T06:17:45.447Z,298.08
2023-02-17T06:20:13.516Z,290.35
2023-02-17T06:22:42.681Z,329.13
2023-02-17T06:25:10.912Z,321.95
2023-02-17T06:27:38.987Z,291.65
2023-02-17T06:30:09.124Z,287.38
2023-02-17T06:32:37.282Z,288.58
2023-02-17T06:35:05.493Z,293.65
2023-02-17T06:37:33.305Z,255.45
2023-02-17T06:40:01.437Z,281.85
2023-02-17T06:42:29.442Z,196.63
2023-02-17T06:44:57.502Z,285.20
2023-02-17T06:47:25.221Z,297.88
2023-02-17T06:49:53.067Z,270.42
2023-02-17T06:52:21.564Z,239.85
2023-02-17T06:54:49.836Z,280.90
2023-02-17T06:57:18.020Z,272.20
2023-02-17T06:59:45.801Z,220.48
2023-02-17T07:02:14.814Z,294.55
2023-02-17T07:04:42.970Z,248.98
2023-02-17T07:07:10.981Z,263.70
2023-02-17T07:09:39.091Z,264.88
2023-02-17T07:12:07.076Z,211.05
2023-02-17T07:14:35.213Z,237.20
2023-02-17T07:17:03.636Z,234.38
2023-02-17T07:19:31.546Z,219.77
2023-02-17T07:21:59.667Z,256.88
2023-02-17T07:24:27.708Z,269.58
2023-02-17T07:26:56.521Z,254.20
2023-02-17T07:29:24.280Z,212.00
2023-02-17T07:31:52.375Z,257.90
2023-02-17T07:34:20.424Z,229.43
2023-02-17T07:36:48.219Z,221.40
2023-02-17T07:39:16.929Z,248.32
2023-02-17T07:41:44.973Z,220.00
2023-02-17T07:44:13.064Z,246.48
2023-02-17T07:46:41.309Z,254.95
2023-02-17T07:49:09.048Z,256.40
2023-02-17T07:51:37.115Z,214.15
2023-02-17T07:54:05.355Z,229.02
2023-02-17T07:56:34.478Z,218.30
2023-02-17T07:59:02.483Z,215.95
2023-02-17T08:01:30.351Z,195.40
2023-02-17T08:03:58.680Z,234.05
2023-02-17T08:06:27.230Z,231.60
2023-02-17T08:09:13.645Z,185.80
2023-02-17T08:12:00.659Z,173.80
2023-02-17T08:14:30.052Z,210.15
2023-02-17T08:16:58.350Z,194.95
2023-02-17T08:19:39.735Z,193.30
2023-02-17T08:22:14.886Z,196.38
2023-02-17T08:24:42.651Z,188.77
2023-02-17T08:27:10.484Z,170.80
2023-02-17T08:29:38.709Z,206.93
2023-02-17T08:32:06.885Z,196.82
2023-02-17T08:34:34.717Z,131.73
2023-02-17T08:37:03.460Z,179.98
2023-02-17T08:39:31.321Z,184.40
2023-02-17T08:41:59.335Z,197.07
2023-02-17T08:44:27.631Z,178.30
2023-02-17T08:46:55.759Z,179.90
2023-02-17T08:49:25.383Z,193.40
2023-02-17T08:51:53.375Z,191.25
2023-02-17T08:54:21.117Z,188.27
2023-02-17T08:56:48.889Z,186.07
2023-02-17T08:59:16.999Z,189.43
2023-02-17T09:01:44.744Z,181.48
2023-02-17T09:04:14.154Z,210.38
2023-02-17T09:06:48.552Z,198.85
2023-02-17T09:09:17.907Z,149.40
2023-02-17T09:11:45.876Z,175.02
2023-02-17T09:14:13.605Z,148.80
2023-02-17T09:16:41.862Z,150.48
2023-02-17T09:19:09.906Z,140.40
2023-02-17T09:21:37.737Z,148.45
2023-02-17T09:24:06.570Z,115.32
2023-02-17T09:26:37.839Z,129.65
2023-02-17T09:29:06.196Z,125.85
2023-02-17T09:31:35.181Z,146.75
2023-02-17T09:34:04.694Z,118.70
2023-02-17T09:36:33.931Z,80.70
2023-02-17T09:39:02.208Z,115.07
2023-02-17T09:41:38.920Z,128.55
2023-02-17T09:44:39.275Z,105.45
2023-02-17T09:47:45.868Z,117.25
2023-02-17T09:50:17.719Z,102.10
2023-02-17T09:52:54.020Z,115.45
2023-02-17T09:55:34.277Z,92.07
2023-02-17T09:58:10.362Z,127.68
2023-02-17T10:00:48.412Z,116.25
2023-02-17T10:04:16.292Z,115.28
2023-02-17T10:06:47.158Z,112.38
2023-02-17T10:09:25.188Z,127.30
2023-02-17T10:12:06.117Z,125.47
2023-02-17T10:14:42.110Z,121.82
2023-02-17T10:17:32.894Z,107.95
2023-02-17T10:20:12.999Z,136.80
2023-02-17T10:22:41.125Z,125.75
2023-02-17T10:25:16.865Z,141.20
2023-02-17T10:28:11.438Z,132.82
2023-02-17T10:30:41.951Z,124.13
2023-02-17T10:33:24.573Z,140.07
2023-02-17T10:38:51.894Z,115.93
2023-02-17T10:41:27.911Z,129.30
2023-02-17T10:43:56.055Z,155.85
2023-02-17T10:46:28.216Z,147.57
2023-02-17T10:48:56.954Z,132.55
2023-02-17T10:51:29.726Z,133.68
2023-02-17T10:54:06.588Z,150.07
2023-02-17T10:56:44.688Z,122.00
2023-02-17T10:59:19.483Z,121.43
2023-02-17T11:01:48.004Z,115.20
2023-02-17T11:04:16.475Z,125.47
2023-02-17T11:06:55.326Z,114.75
2023-02-17T11:09:29.140Z,117.55
2023-02-17T11:12:01.331Z,124.88
2023-02-17T11:17:02.459Z,109.93
2023-02-17T11:19:34.676Z,102.70
2023-02-17T11:22:04.216Z,134.40
2023-02-17T11:24:33.181Z,112.35
2023-02-17T11:27:11.950Z,118.57
2023-02-17T11:29:39.730Z,115.88
2023-02-17T11:32:09.425Z,117.03
2023-02-17T11:34:39.992Z,114.72
2023-02-17T11:37:10.500Z,123.18
2023-02-17T11:39:48.760Z,106.53
2023-02-17T11:42:17.467Z,133.57
2023-02-17T11:44:45.747Z,161.13
2023-02-17T11:47:25.406Z,190.32
2023-02-17T11:50:31.683Z,193.07
2023-02-17T11:53:44.232Z,194.70
2023-02-17T11:56:23.508Z,182.68
2023-02-17T11:59:13.785Z,177.13
2023-02-17T12:01:47.110Z,161.70
2023-02-17T12:04:27.214Z,133.48
2023-02-17T12:07:32.426Z,186.23
2023-02-17T12:10:12.305Z,172.48
2023-02-17T12:13:19.798Z,183.25
2023-02-17T12:15:57.781Z,175.60
2023-02-17T12:18:44.892Z,172.02
2023-02-17T12:21:28.263Z,168.63
2023-02-17T12:24:19.431Z,168.35
2023-02-17T12:26:50.648Z,180.80
2023-02-17T12:29:33.572Z,206.93
2023-02-17T12:32:20.567Z,213.57
2023-02-17T12:34:53.409Z,167.48
2023-02-17T12:37:25.880Z,196.38
2023-02-17T12:40:04.950Z,201.20
2023-02-17T12:42:52.361Z,200.65
2023-02-17T12:45:22.936Z,205.40
2023-02-17T12:48:02.716Z,224.98
2023-02-17T12:50:38.340Z,211.52
2023-02-17T12:53:11.187Z,218.40
2023-02-17T12:58:18.050Z,219.68
2023-02-17T13:00:49.226Z,195.45
2023-02-17T13:03:17.348Z,195.35
2023-02-17T13:05:50.915Z,246.15
2023-02-17T13:08:23.656Z,227.18
2023-02-17T13:11:08.939Z,248.02
2023-02-17T13:13:36.997Z,245.25
2023-02-17T13:16:13.070Z,260.60
2023-02-17T13:18:50.405Z,240.82
2023-02-17T13:21:23.106Z,249.73
2023-02-17T13:26:39.094Z,193.55
2023-02-17T13:29:20.885Z,207.65
2023-02-17T13:31:59.409Z,211.43
2023-02-17T13:34:42.973Z,226.32
2023-02-17T13:37:26.928Z,210.90
2023-02-17T13:39:55.320Z,208.45
2023-02-17T13:42:44.541Z,225.52
2023-02-17T13:45:15.616Z,222.30
2023-02-17T13:47:43.566Z,213.73
2023-02-17T13:50:33.993Z,225.38
2023-02-17T13:53:23.212Z,142.82
2023-02-17T13:55:51.558Z,142.48
2023-02-17T13:58:28.450Z,114.55
2023-02-17T14:00:56.508Z,110.35
2023-02-17T14:03:34.229Z,126.18
2023-02-17T14:06:02.684Z,125.40
2023-02-17T14:08:41.299Z,113.18
2023-02-17T14:11:11.488Z,121.22
2023-02-17T14:13:40.861Z,125.00
2023-02-17T14:16:08.877Z,111.35
2023-02-17T14:18:38.954Z,110.80
2023-02-17T14:21:24.289Z,115.53
2023-02-17T14:23:53.995Z,118.30
2023-02-17T14:26:35.563Z,126.13
2023-02-17T14:29:05.737Z,111.03
2023-02-17T14:31:44.774Z,122.85
2023-02-17T14:34:21.935Z,124.90
2023-02-17T14:36:50.745Z,116.25
2023-02-17T14:39:18.590Z,103.03
2023-02-17T14:41:46.734Z,117.65
2023-02-17T14:44:14.721Z,120.13
2023-02-17T14:46:43.004Z,114.93
2023-02-17T14:49:10.858Z,124.75
2023-02-17T14:51:39.131Z,122.22
2023-02-17T14:54:15.373Z,119.65
2023-02-17T14:57:08.192Z,120.50
2023-02-17T14:59:36.040Z,107.25
2023-02-17T15:02:03.812Z,133.55
2023-02-17T15:04:31.893Z,128.65
2023-02-17T15:07:00.025Z,116.35
2023-02-17T15:09:31.536Z,124.95
2023-02-17T15:11:59.759Z,130.70
2023-02-17T15:14:27.847Z,125.45
2023-02-17T15:16:55.692Z,119.38
2023-02-17T15:19:25.079Z,120.00
2023-02-17T15:21:53.196Z,129.57
2023-02-17T15:24:23.792Z,121.55
2023-02-17T15:26:51.939Z,136.50
2023-02-17T15:29:22.068Z,127.88
2023-02-17T15:31:50.973Z,140.05
2023-02-17T15:34:20.806Z,117.07
2023-02-17T15:36:48.856Z,106.28
2023-02-17T15:39:18.719Z,116.00
2023-02-17T15:41:47.592Z,118.57
2023-02-17T15:44:20.560Z,121.82
2023-02-17T15:46:50.838Z,108.78
2023-02-17T15:49:18.626Z,119.95
2023-02-17T15:51:46.675Z,154.30
2023-02-17T15:54:19.758Z,149.38
2023-02-17T15:56:50.183Z,168.77
2023-02-17T15:59:25.971Z,170.27
2023-02-17T16:01:56.485Z,164.00
2023-02-17T16:04:24.511Z,182.38
2023-02-17T16:06:52.314Z,222.57
2023-02-17T16:09:23.120Z,224.80
2023-02-17T16:11:53.036Z,213.25
2023-02-17T16:14:26.029Z,230.60
2023-02-17T16:16:54.440Z,224.30
2023-02-17T16:19:23.477Z,188.77
2023-02-17T16:21:51.432Z,184.25
2023-02-17T16:24:20.289Z,193.35
2023-02-17T16:26:48.622Z,182.35
2023-02-17T16:29:21.455Z,191.27
2023-02-17T16:31:49.961Z,185.73
2023-02-17T16:34:23.031Z,216.18
2023-02-17T16:36:51.887Z,230.02
2023-02-17T16:39:23.294Z,195.50
2023-02-17T16:41:51.178Z,244.32
2023-02-17T16:44:21.234Z,215.93
2023-02-17T16:46:54.676Z,229.27
2023-02-17T16:49:37.134Z,213.52
2023-02-17T16:52:17.911Z,241.70
2023-02-17T16:54:46.003Z,251.52
2023-02-17T16:57:17.443Z,222.43
2023-02-17T16:59:46.365Z,214.37
2023-02-17T17:02:14.596Z,213.30
2023-02-17T17:04:42.804Z,217.45
2023-02-17T17:07:13.791Z,196.65
2023-02-17T17:09:43.065Z,202.20
2023-02-17T17:12:11.859Z,184.48
2023-02-17T17:14:39.943Z,206.25
2023-02-17T17:17:10.917Z,210.20
2023-02-17T17:19:39.417Z,218.02
2023-02-17T17:22:07.309Z,205.45
2023-02-17T17:24:35.374Z,213.63
2023-02-17T17:27:03.763Z,210.70
2023-02-17T17:29:31.508Z,266.15
2023-02-17T17:31:59.294Z,261.83
2023-02-17T17:34:28.338Z,250.73
2023-02-17T17:36:56.108Z,255.93
2023-02-17T17:39:24.653Z,245.48
2023-02-17T17:41:52.834Z,331.95
2023-02-17T17:44:21.027Z,321.90
2023-02-17T17:46:48.907Z,304.40
2023-02-17T17:49:18.849Z,258.02
2023-02-17T17:51:46.954Z,284.10
2023-02-17T17:54:15.065Z,284.77
2023-02-17T17:56:43.712Z,250.40
2023-02-17T17:59:12.690Z,240.88
2023-02-17T18:01:40.573Z,252.50
2023-02-17T18:04:09.841Z,240.65
2023-02-17T18:06:42.484Z,236.75
2023-02-17T18:09:25.732Z,255.68
2023-02-17T18:11:59.069Z,228.10
2023-02-17T18:14:27.207Z,230.60
2023-02-17T18:16:55.413Z,221.82
2023-02-17T18:19:24.002Z,229.85
2023-02-17T18:21:52.045Z,229.93
2023-02-17T18:24:20.139Z,226.90
2023-02-17T18:26:48.366Z,212.88
2023-02-17T18:29:16.767Z,207.75
2023-02-17T18:31:45.543Z,197.73
2023-02-17T18:34:13.912Z,197.52
2023-02-17T18:36:41.724Z,215.95
2023-02-17T18:39:09.804Z,194.73
2023-02-17T18:41:38.312Z,191.32
2023-02-17T18:44:06.862Z,207.85
2023-02-17T18:46:35.114Z,192.60
2023-02-17T18:49:02.907Z,196.43
2023-02-17T18:51:31.262Z,207.30
2023-02-17T18:54:00.426Z,210.32
2023-02-17T18:56:29.826Z,192.73
2023-02-17T18:58:58.131Z,200.98
2023-02-17T19:01:28.707Z,183.75
2023-02-17T19:03:56.854Z,182.32
2023-02-17T19:06:26.406Z,176.25
2023-02-17T19:08:54.256Z,166.07
2023-02-17T19:11:23.205Z,178.48
2023-02-17T19:13:51.234Z,165.48
2023-02-17T19:16:27.870Z,176.73
2023-02-17T19:18:56.755Z,155.00
2023-02-17T19:21:24.791Z,166.63
2023-02-17T19:23:52.897Z,183.38
2023-02-17T19:26:21.647Z,174.88
2023-02-17T19:28:50.022Z,165.07
2023-02-17T19:31:19.161Z,169.85
2023-02-17T19:33:47.563Z,177.00
2023-02-17T19:36:17.700Z,169.82
2023-02-17T19:38:46.273Z,171.95
2023-02-17T19:41:14.405Z,184.70
2023-02-17T19:43:42.236Z,163.02
2023-02-17T19:46:14.265Z,153.18
2023-02-17T19:48:42.112Z,159.77
2023-02-17T19:51:10.324Z,148.75
2023-02-17T19:53:38.093Z,174.85
2023-02-17T19:56:17.639Z,155.88
2023-02-17T19:58:45.727Z,159.65
2023-02-17T20:01:32.889Z,146.15
2023-02-17T20:04:02.441Z,152.15
2023-02-17T20:06:32.161Z,165.98
2023-02-17T20:09:01.663Z,176.00
2023-02-17T20:11:29.684Z,176.15
2023-02-17T20:13:58.043Z,169.30
2023-02-17T20:16:26.500Z,174.63
2023-02-17T20:18:56.049Z,165.93
2023-02-17T20:21:25.596Z,168.00
2023-02-17T20:23:53.458Z,163.27
2023-02-17T20:26:24.173Z,145.52
2023-02-17T20:28:52.068Z,161.05
2023-02-17T20:31:20.802Z,146.55
2023-02-17T20:33:48.699Z,151.15
2023-02-17T20:36:16.925Z,147.38
2023-02-17T20:38:45.796Z,131.30
2023-02-17T20:41:15.486Z,136.32
2023-02-17T20:43:43.730Z,144.20
2023-02-17T20:46:21.715Z,164.00
2023-02-17T20:48:50.197Z,138.75
2023-02-17T20:51:18.272Z,145.77
2023-02-17T20:53:46.542Z,132.35
2023-02-17T20:56:15.701Z,130.27
2023-02-17T20:58:43.546Z,137.52
2023-02-17T21:01:11.599Z,126.88
2023-02-17T21:03:39.909Z,145.98
2023-02-17T21:06:33.205Z,139.40
2023-02-17T21:09:02.844Z,149.90
2023-02-17T21:11:30.727Z,135.75
2023-02-17T21:13:58.651Z,123.97
2023-02-17T21:16:28.636Z,157.23
2023-02-17T21:18:56.811Z,146.63
2023-02-17T21:21:24.944Z,145.85
2023-02-17T21:23:52.752Z,139.98
2023-02-17T21:26:21.093Z,139.73
2023-02-17T21:28:49.342Z,144.38
2023-02-17T21:31:17.730Z,155.23
2023-02-17T21:33:46.037Z,135.95
2023-02-17T21:36:15.542Z,133.50
2023-02-17T21:38:43.521Z,153.52
2023-02-17T21:41:14.865Z,156.85
2023-02-17T21:44:01.680Z,123.15
2023-02-17T21:46:31.008Z,135.77
2023-02-17T21:48:59.569Z,136.85
2023-02-17T21:51:27.736Z,130.93
2023-02-17T21:53:55.936Z,155.25
2023-02-17T21:56:23.705Z,139.65
2023-02-17T21:58:53.569Z,115.13
2023-02-17T22:01:21.623Z,150.07
2023-02-17T22:03:49.706Z,125.20
2023-02-17T22:06:28.621Z,142.07
2023-02-17T22:08:57.121Z,155.57
2023-02-17T22:11:27.258Z,160.38
2023-02-17T22:13:59.793Z,157.75
2023-02-17T22:16:28.313Z,154.27
2023-02-17T22:18:56.133Z,160.35
2023-02-17T22:21:24.360Z,146.27
2023-02-17T22:23:52.141Z,155.75
2023-02-17T22:26:24.083Z,158.25
2023-02-17T22:28:52.234Z,159.73
2023-02-17T22:31:22.202Z,142.93
2023-02-17T22:33:50.419Z,169.70
2023-02-17T22:36:21.662Z,151.40
2023-02-17T22:38:50.023Z,163.05
2023-02-17T22:41:20.069Z,141.48
2023-02-17T22:43:48.065Z,148.43
2023-02-17T22:46:16.915Z,167.43
2023-02-17T22:48:46.050Z,143.10
2023-02-17T22:51:20.537Z,151.48
2023-02-17T22:53:48.733Z,156.35
2023-02-17T22:56:17.102Z,151.57
2023-02-17T22:58:45.114Z,146.73
2023-02-17T23:01:13.789Z,150.98
2023-02-17T23:03:41.816Z,170.65
2023-02-17T23:06:23.528Z,142.23
2023-02-17T23:08:51.827Z,145.65
2023-02-17T23:11:41.925Z,144.50
2023-02-17T23:14:10.843Z,168.30
2023-02-17T23:16:38.731Z,159.18
2023-02-17T23:19:08.455Z,147.48
2023-02-17T23:21:36.723Z,129.07
2023-02-17T23:24:05.059Z,161.07
2023-02-17T23:26:32.838Z,161.60
2023-02-17T23:29:00.802Z,161.40
2023-02-17T23:31:28.956Z,153.00
2023-02-17T23:33:57.318Z,157.23
2023-02-17T23:36:24.987Z,174.98
2023-02-17T23:38:53.006Z,156.85
2023-02-17T23:41:21.074Z,148.27
2023-02-17T23:43:48.880Z,169.50
2023-02-17T23:46:16.700Z,144.88
2023-02-17T23:48:45.039Z,156.88
2023-02-17T23:51:18.982Z,161.40
2023-02-17T23:53:47.132Z,184.48
2023-02-17T23:56:16.885Z,206.18
2023-02-17T23:58:45.086Z,157.90
